»·PEaware :: N32G KSMX-KBFL

N32G :: KSMX-KBFL

FLIGHT INFORMATION

Flight Status: Arrived
Operator: Privately registered:
United States
More flights under this callsign
Pilot: Patrick B. (17678)
Aircraft: CESSNA 172 SKYHAWK
(C172)
More flights by this aircraft type
Origin: KSMX Santa Maria Pub/Capt Hancock
United States
Destination: KBFL Meadows
United States
More flights between these airports :: More routes between these airports
Route: N/A
File this flight plan on PilotEdge
Remarks: CAT-04
Altitude:
(Current/Filed)
7,500ft
Speed:
(Current/Filed)
120kts
Departed: 02-Jan-18 10:22 PM
Arrived: 02-Jan-18 11:06 PM
Distance/Time
Traveled:
76nm/0:44
Distance/Time
To Go:
Arrived

Flight Plot

Page will automatically refresh every two minutes.

Flight plan parsing failed; only flown route is shown


Map Options




Map Legend


Flown Route
Filed Route
Departure Airport
Arrival Airport
Navaid (VOR, NDB)
Fix

Horizontal Profiles

Position Reports

Time Latitude Longitude Heading Altitude Ground
Speed
02-Jan-18 22:13 34.906052 -120.457642 316 265ft 0kts
02-Jan-18 22:14 34.906052 -120.457642 316 265ft 0kts
02-Jan-18 22:15 34.906052 -120.457642 316 265ft 0kts
02-Jan-18 22:16 34.906052 -120.457642 315 265ft 0kts
02-Jan-18 22:17 34.906052 -120.457642 315 265ft 0kts
02-Jan-18 22:18 34.906052 -120.457642 315 265ft 0kts
02-Jan-18 22:19 34.906052 -120.457642 316 265ft 0kts
02-Jan-18 22:20 34.906052 -120.457642 316 265ft 0kts
02-Jan-18 22:21 34.906052 -120.457642 316 265ft 0kts
02-Jan-18 22:22 34.905596 -120.458610 152 265ft 14kts
02-Jan-18 22:23 34.901068 -120.453221 134 265ft 26kts
02-Jan-18 22:24 34.896287 -120.447468 136 265ft 23kts
02-Jan-18 22:25 34.893110 -120.444950 183 265ft 0kts
02-Jan-18 22:26 34.893110 -120.444950 183 265ft 0kts
02-Jan-18 22:27 34.892801 -120.445765 302 265ft 19kts
02-Jan-18 22:28 34.905790 -120.461233 312 601ft 84kts
02-Jan-18 22:29 34.922370 -120.466976 76 1122ft 81kts
02-Jan-18 22:30 34.915621 -120.442154 120 1977ft 75kts
02-Jan-18 22:31 34.918360 -120.419892 55 2773ft 72kts
02-Jan-18 22:32 34.927097 -120.396275 65 3476ft 78kts
02-Jan-18 22:33 34.936347 -120.372459 60 4183ft 79kts
02-Jan-18 22:34 34.944514 -120.347749 59 4908ft 79kts
02-Jan-18 22:35 34.953338 -120.325160 67 5542ft 80kts
02-Jan-18 22:36 34.961888 -120.300104 66 6183ft 82kts
02-Jan-18 22:37 34.973186 -120.273554 65 6513ft 110kts
02-Jan-18 22:38 34.984821 -120.235984 69 6509ft 122kts
02-Jan-18 22:39 34.997219 -120.196897 68 6509ft 125kts
02-Jan-18 22:40 35.009904 -120.157888 63 6626ft 116kts
02-Jan-18 22:41 35.025266 -120.126564 58 7119ft 103kts
02-Jan-18 22:42 35.039189 -120.097398 62 7615ft 97kts
02-Jan-18 22:43 35.053624 -120.062140 63 7325ft 128kts
02-Jan-18 22:44 35.068616 -120.025523 63 7339ft 117kts
02-Jan-18 22:45 35.082459 -119.989087 65 7339ft 120kts
02-Jan-18 22:46 35.095979 -119.951507 65 7339ft 121kts
02-Jan-18 22:47 35.109369 -119.914397 65 7339ft 121kts
02-Jan-18 22:48 35.123048 -119.876598 65 7313ft 123kts
02-Jan-18 22:49 35.136907 -119.838406 65 7312ft 122kts
02-Jan-18 22:50 35.150514 -119.800529 65 7312ft 122kts
02-Jan-18 22:51 35.163525 -119.762433 67 7312ft 121kts
02-Jan-18 22:52 35.177224 -119.724684 65 7312ft 121kts
02-Jan-18 22:53 35.191098 -119.686917 65 7312ft 121kts
02-Jan-18 22:54 35.204270 -119.649001 65 7312ft 121kts
02-Jan-18 22:55 35.218057 -119.611181 65 7312ft 121kts
02-Jan-18 22:56 35.232008 -119.573531 64 7312ft 121kts
02-Jan-18 22:57 35.245999 -119.535882 64 7312ft 121kts
02-Jan-18 22:58 35.260082 -119.498084 64 7312ft 121kts
02-Jan-18 22:59 35.274109 -119.460541 64 7312ft 121kts
02-Jan-18 23:00 35.288250 -119.422797 64 7312ft 121kts
02-Jan-18 23:01 35.302743 -119.383284 65 6944ft 129kts
02-Jan-18 23:02 35.316609 -119.344597 66 6560ft 129kts
02-Jan-18 23:03 35.331024 -119.304482 66 6163ft 129kts
02-Jan-18 23:04 35.345643 -119.263900 66 5708ft 130kts
02-Jan-18 23:05 35.360193 -119.223589 66 5210ft 129kts
02-Jan-18 23:06 35.374726 -119.183523 64 4707ft 126kts
02-Jan-18 23:07 35.388106 -119.143169 67 3763ft 127kts
02-Jan-18 23:08 35.399310 -119.103527 74 2647ft 119kts
02-Jan-18 23:09 35.405730 -119.063653 85 1504ft 119kts
02-Jan-18 23:10 35.406625 -119.036738 12 1033ft 72kts
02-Jan-18 23:11 35.425442 -119.046049 315 488ft 65kts
02-Jan-18 23:12 35.432524 -119.052382 316 493ft 19kts
02-Jan-18 23:13 35.435204 -119.051953 85 502ft 14kts
02-Jan-18 23:14 35.435381 -119.051156 146 506ft 0kts
02-Jan-18 23:15 35.435381 -119.051156 146 506ft 0kts
02-Jan-18 23:16 35.435381 -119.051156 146 506ft 0kts
02-Jan-18 23:17 35.435381 -119.051156 146 506ft 0kts

Navigation Log

Ident Type
Flight plan parsing failed, navigation log unavailable